sensor_id;sensor_type;location;lat;lon;timestamp;P1;durP1;ratioP1;P2;durP2;ratioP2
59189;SDS011;50749;51.636;4.948;2023-09-07T00:02:20;7.43;;;4.18;;
59189;SDS011;50749;51.636;4.948;2023-09-07T00:04:46;7.07;;;3.90;;
59189;SDS011;50749;51.636;4.948;2023-09-07T00:07:12;7.75;;;4.28;;
59189;SDS011;50749;51.636;4.948;2023-09-07T00:09:38;7.13;;;3.72;;
59189;SDS011;50749;51.636;4.948;2023-09-07T00:12:03;5.75;;;3.88;;
59189;SDS011;50749;51.636;4.948;2023-09-07T00:14:29;5.30;;;3.63;;
59189;SDS011;50749;51.636;4.948;2023-09-07T00:16:55;7.97;;;4.00;;
59189;SDS011;50749;51.636;4.948;2023-09-07T00:19:22;7.13;;;4.50;;
59189;SDS011;50749;51.636;4.948;2023-09-07T00:21:48;5.80;;;3.83;;
59189;SDS011;50749;51.636;4.948;2023-09-07T00:24:17;5.50;;;3.90;;
59189;SDS011;50749;51.636;4.948;2023-09-07T00:26:43;5.85;;;4.53;;
59189;SDS011;50749;51.636;4.948;2023-09-07T00:29:10;5.25;;;3.85;;
59189;SDS011;50749;51.636;4.948;2023-09-07T00:31:36;5.78;;;3.63;;
59189;SDS011;50749;51.636;4.948;2023-09-07T00:34:02;5.60;;;3.92;;
59189;SDS011;50749;51.636;4.948;2023-09-07T00:36:28;7.47;;;4.20;;
59189;SDS011;50749;51.636;4.948;2023-09-07T00:38:53;7.03;;;4.60;;
59189;SDS011;50749;51.636;4.948;2023-09-07T00:41:19;6.53;;;3.85;;
59189;SDS011;50749;51.636;4.948;2023-09-07T00:43:45;7.88;;;4.15;;
59189;SDS011;50749;51.636;4.948;2023-09-07T00:46:11;5.90;;;4.47;;
59189;SDS011;50749;51.636;4.948;2023-09-07T00:48:37;5.38;;;3.63;;
59189;SDS011;50749;51.636;4.948;2023-09-07T00:51:03;8.50;;;4.85;;
59189;SDS011;50749;51.636;4.948;2023-09-07T00:53:29;5.15;;;3.60;;
59189;SDS011;50749;51.636;4.948;2023-09-07T00:55:55;6.50;;;3.58;;
59189;SDS011;50749;51.636;4.948;2023-09-07T00:58:23;4.93;;;3.50;;
59189;SDS011;50749;51.636;4.948;2023-09-07T01:00:48;6.22;;;3.63;;
59189;SDS011;50749;51.636;4.948;2023-09-07T01:03:14;4.90;;;3.70;;
59189;SDS011;50749;51.636;4.948;2023-09-07T01:05:43;6.15;;;3.80;;
59189;SDS011;50749;51.636;4.948;2023-09-07T01:08:23;5.80;;;3.55;;
59189;SDS011;50749;51.636;4.948;2023-09-07T01:10:50;5.93;;;3.88;;
59189;SDS011;50749;51.636;4.948;2023-09-07T01:13:17;5.72;;;3.30;;
59189;SDS011;50749;51.636;4.948;2023-09-07T01:15:44;6.05;;;3.67;;
59189;SDS011;50749;51.636;4.948;2023-09-07T01:18:10;6.78;;;4.22;;
59189;SDS011;50749;51.636;4.948;2023-09-07T01:20:36;5.45;;;3.65;;
59189;SDS011;50749;51.636;4.948;2023-09-07T01:23:04;4.97;;;3.40;;
59189;SDS011;50749;51.636;4.948;2023-09-07T01:25:30;5.10;;;3.90;;
59189;SDS011;50749;51.636;4.948;2023-09-07T01:27:57;4.38;;;3.47;;
59189;SDS011;50749;51.636;4.948;2023-09-07T01:30:25;5.30;;;3.60;;
59189;SDS011;50749;51.636;4.948;2023-09-07T01:32:53;5.00;;;3.40;;
59189;SDS011;50749;51.636;4.948;2023-09-07T01:35:18;6.30;;;3.50;;
59189;SDS011;50749;51.636;4.948;2023-09-07T01:37:47;4.80;;;3.60;;
59189;SDS011;50749;51.636;4.948;2023-09-07T01:40:13;5.95;;;3.70;;
59189;SDS011;50749;51.636;4.948;2023-09-07T01:42:39;5.85;;;3.88;;
59189;SDS011;50749;51.636;4.948;2023-09-07T01:45:05;7.13;;;3.83;;
59189;SDS011;50749;51.636;4.948;2023-09-07T01:47:32;5.30;;;3.08;;
59189;SDS011;50749;51.636;4.948;2023-09-07T01:49:58;5.45;;;3.47;;
59189;SDS011;50749;51.636;4.948;2023-09-07T01:52:24;5.55;;;3.33;;
59189;SDS011;50749;51.636;4.948;2023-09-07T01:54:49;5.30;;;3.70;;
59189;SDS011;50749;51.636;4.948;2023-09-07T01:57:16;3.88;;;3.38;;
59189;SDS011;50749;51.636;4.948;2023-09-07T01:59:41;4.60;;;3.30;;
59189;SDS011;50749;51.636;4.948;2023-09-07T02:02:07;4.65;;;3.28;;
59189;SDS011;50749;51.636;4.948;2023-09-07T02:04:33;5.80;;;3.58;;
59189;SDS011;50749;51.636;4.948;2023-09-07T02:06:59;5.57;;;3.80;;
59189;SDS011;50749;51.636;4.948;2023-09-07T02:09:24;4.57;;;3.30;;
59189;SDS011;50749;51.636;4.948;2023-09-07T02:11:50;5.10;;;3.75;;
59189;SDS011;50749;51.636;4.948;2023-09-07T02:14:16;5.65;;;3.50;;
59189;SDS011;50749;51.636;4.948;2023-09-07T02:16:42;4.18;;;3.42;;
59189;SDS011;50749;51.636;4.948;2023-09-07T02:19:08;4.53;;;3.42;;
59189;SDS011;50749;51.636;4.948;2023-09-07T02:21:34;5.50;;;3.67;;
59189;SDS011;50749;51.636;4.948;2023-09-07T02:24:00;6.53;;;3.97;;
59189;SDS011;50749;51.636;4.948;2023-09-07T02:26:26;4.22;;;3.15;;
59189;SDS011;50749;51.636;4.948;2023-09-07T02:28:51;4.28;;;3.13;;
59189;SDS011;50749;51.636;4.948;2023-09-07T02:31:17;4.35;;;3.42;;
59189;SDS011;50749;51.636;4.948;2023-09-07T02:33:43;7.13;;;3.80;;
59189;SDS011;50749;51.636;4.948;2023-09-07T02:36:09;5.20;;;3.25;;
59189;SDS011;50749;51.636;4.948;2023-09-07T02:38:35;5.07;;;3.65;;
59189;SDS011;50749;51.636;4.948;2023-09-07T02:41:01;6.15;;;3.90;;
59189;SDS011;50749;51.636;4.948;2023-09-07T02:43:27;4.78;;;3.53;;
59189;SDS011;50749;51.636;4.948;2023-09-07T02:45:53;4.30;;;3.38;;
59189;SDS011;50749;51.636;4.948;2023-09-07T02:48:19;5.18;;;3.85;;
59189;SDS011;50749;51.636;4.948;2023-09-07T02:50:45;5.20;;;3.47;;
59189;SDS011;50749;51.636;4.948;2023-09-07T02:53:15;4.50;;;3.67;;
59189;SDS011;50749;51.636;4.948;2023-09-07T02:55:41;4.65;;;3.47;;
59189;SDS011;50749;51.636;4.948;2023-09-07T02:58:06;5.07;;;3.55;;
59189;SDS011;50749;51.636;4.948;2023-09-07T03:00:32;4.72;;;3.10;;
59189;SDS011;50749;51.636;4.948;2023-09-07T03:02:59;5.45;;;3.20;;
59189;SDS011;50749;51.636;4.948;2023-09-07T03:05:28;4.75;;;3.65;;
59189;SDS011;50749;51.636;4.948;2023-09-07T03:07:54;5.43;;;4.10;;
59189;SDS011;50749;51.636;4.948;2023-09-07T03:10:20;6.18;;;3.15;;
59189;SDS011;50749;51.636;4.948;2023-09-07T03:12:45;5.63;;;3.55;;
59189;SDS011;50749;51.636;4.948;2023-09-07T03:15:11;3.97;;;3.15;;
59189;SDS011;50749;51.636;4.948;2023-09-07T03:17:37;4.20;;;3.45;;
59189;SDS011;50749;51.636;4.948;2023-09-07T03:20:03;5.53;;;3.50;;
59189;SDS011;50749;51.636;4.948;2023-09-07T03:22:42;5.28;;;3.67;;
59189;SDS011;50749;51.636;4.948;2023-09-07T03:25:08;6.32;;;3.90;;
59189;SDS011;50749;51.636;4.948;2023-09-07T03:27:37;5.38;;;3.35;;
59189;SDS011;50749;51.636;4.948;2023-09-07T03:30:04;5.70;;;3.38;;
59189;SDS011;50749;51.636;4.948;2023-09-07T03:32:31;4.78;;;3.60;;
59189;SDS011;50749;51.636;4.948;2023-09-07T03:34:59;4.20;;;3.67;;
59189;SDS011;50749;51.636;4.948;2023-09-07T03:37:26;5.32;;;3.72;;
59189;SDS011;50749;51.636;4.948;2023-09-07T03:39:53;5.00;;;4.03;;
59189;SDS011;50749;51.636;4.948;2023-09-07T03:42:20;5.70;;;4.38;;
59189;SDS011;50749;51.636;4.948;2023-09-07T03:44:46;5.15;;;3.95;;
59189;SDS011;50749;51.636;4.948;2023-09-07T03:47:13;5.68;;;4.03;;
59189;SDS011;50749;51.636;4.948;2023-09-07T03:49:41;6.40;;;4.45;;
59189;SDS011;50749;51.636;4.948;2023-09-07T03:52:07;5.97;;;4.13;;
59189;SDS011;50749;51.636;4.948;2023-09-07T03:54:34;5.72;;;4.10;;
59189;SDS011;50749;51.636;4.948;2023-09-07T03:57:00;8.50;;;4.50;;
59189;SDS011;50749;51.636;4.948;2023-09-07T03:59:27;4.50;;;3.50;;
59189;SDS011;50749;51.636;4.948;2023-09-07T04:01:53;5.50;;;3.92;;
59189;SDS011;50749;51.636;4.948;2023-09-07T04:04:20;6.68;;;3.95;;
59189;SDS011;50749;51.636;4.948;2023-09-07T04:06:46;6.90;;;4.65;;
59189;SDS011;50749;51.636;4.948;2023-09-07T04:09:13;5.88;;;3.92;;
59189;SDS011;50749;51.636;4.948;2023-09-07T04:11:39;6.00;;;4.18;;
59189;SDS011;50749;51.636;4.948;2023-09-07T04:14:05;6.43;;;4.32;;
59189;SDS011;50749;51.636;4.948;2023-09-07T04:16:31;6.18;;;3.97;;
59189;SDS011;50749;51.636;4.948;2023-09-07T04:18:57;5.00;;;3.60;;
59189;SDS011;50749;51.636;4.948;2023-09-07T04:21:22;7.90;;;3.95;;
59189;SDS011;50749;51.636;4.948;2023-09-07T04:23:48;5.32;;;3.78;;
59189;SDS011;50749;51.636;4.948;2023-09-07T04:26:14;6.40;;;4.80;;
59189;SDS011;50749;51.636;4.948;2023-09-07T04:28:40;4.65;;;3.63;;
59189;SDS011;50749;51.636;4.948;2023-09-07T04:31:06;5.35;;;4.05;;
59189;SDS011;50749;51.636;4.948;2023-09-07T04:33:32;7.10;;;4.78;;
59189;SDS011;50749;51.636;4.948;2023-09-07T04:36:08;5.38;;;3.80;;
59189;SDS011;50749;51.636;4.948;2023-09-07T04:38:35;5.60;;;4.35;;
59189;SDS011;50749;51.636;4.948;2023-09-07T04:41:11;4.18;;;3.60;;
59189;SDS011;50749;51.636;4.948;2023-09-07T04:43:39;5.90;;;4.25;;
59189;SDS011;50749;51.636;4.948;2023-09-07T04:46:08;10.05;;;6.03;;
59189;SDS011;50749;51.636;4.948;2023-09-07T04:48:35;9.80;;;6.93;;
59189;SDS011;50749;51.636;4.948;2023-09-07T04:51:02;8.73;;;6.50;;
59189;SDS011;50749;51.636;4.948;2023-09-07T04:53:30;9.68;;;6.82;;
59189;SDS011;50749;51.636;4.948;2023-09-07T04:55:57;12.85;;;7.75;;
59189;SDS011;50749;51.636;4.948;2023-09-07T04:58:23;11.82;;;8.00;;
59189;SDS011;50749;51.636;4.948;2023-09-07T05:00:49;10.80;;;7.60;;
59189;SDS011;50749;51.636;4.948;2023-09-07T05:03:16;13.23;;;7.22;;
59189;SDS011;50749;51.636;4.948;2023-09-07T05:05:42;9.10;;;6.95;;
59189;SDS011;50749;51.636;4.948;2023-09-07T05:08:09;14.85;;;7.05;;
59189;SDS011;50749;51.636;4.948;2023-09-07T05:10:35;11.40;;;7.55;;
59189;SDS011;50749;51.636;4.948;2023-09-07T05:13:02;9.32;;;7.15;;
59189;SDS011;50749;51.636;4.948;2023-09-07T05:15:28;11.15;;;7.88;;
59189;SDS011;50749;51.636;4.948;2023-09-07T05:17:54;9.73;;;6.88;;
59189;SDS011;50749;51.636;4.948;2023-09-07T05:20:20;13.57;;;7.85;;
59189;SDS011;50749;51.636;4.948;2023-09-07T05:22:47;10.55;;;6.97;;
59189;SDS011;50749;51.636;4.948;2023-09-07T05:25:13;9.70;;;6.80;;
59189;SDS011;50749;51.636;4.948;2023-09-07T05:27:39;14.65;;;7.05;;
59189;SDS011;50749;51.636;4.948;2023-09-07T05:30:05;8.20;;;6.65;;
59189;SDS011;50749;51.636;4.948;2023-09-07T05:32:32;11.48;;;7.03;;
59189;SDS011;50749;51.636;4.948;2023-09-07T05:34:57;10.77;;;6.78;;
59189;SDS011;50749;51.636;4.948;2023-09-07T05:37:23;11.18;;;6.47;;
59189;SDS011;50749;51.636;4.948;2023-09-07T05:39:49;10.20;;;6.97;;
59189;SDS011;50749;51.636;4.948;2023-09-07T05:42:15;10.48;;;7.07;;
59189;SDS011;50749;51.636;4.948;2023-09-07T05:44:41;10.00;;;6.93;;
59189;SDS011;50749;51.636;4.948;2023-09-07T05:47:07;10.93;;;7.68;;
59189;SDS011;50749;51.636;4.948;2023-09-07T05:49:33;11.65;;;7.15;;
59189;SDS011;50749;51.636;4.948;2023-09-07T05:51:59;12.43;;;7.13;;
59189;SDS011;50749;51.636;4.948;2023-09-07T05:54:25;8.35;;;6.63;;
59189;SDS011;50749;51.636;4.948;2023-09-07T05:56:51;11.85;;;7.53;;
59189;SDS011;50749;51.636;4.948;2023-09-07T05:59:16;11.60;;;7.10;;
59189;SDS011;50749;51.636;4.948;2023-09-07T06:01:42;10.13;;;7.35;;
59189;SDS011;50749;51.636;4.948;2023-09-07T06:04:08;11.90;;;8.00;;
59189;SDS011;50749;51.636;4.948;2023-09-07T06:06:34;12.68;;;7.38;;
59189;SDS011;50749;51.636;4.948;2023-09-07T06:08:59;11.27;;;7.80;;
59189;SDS011;50749;51.636;4.948;2023-09-07T06:11:25;11.25;;;7.63;;
59189;SDS011;50749;51.636;4.948;2023-09-07T06:13:51;11.13;;;7.25;;
59189;SDS011;50749;51.636;4.948;2023-09-07T06:16:17;11.55;;;7.70;;
59189;SDS011;50749;51.636;4.948;2023-09-07T06:18:43;13.80;;;7.65;;
59189;SDS011;50749;51.636;4.948;2023-09-07T06:21:09;13.50;;;7.75;;
59189;SDS011;50749;51.636;4.948;2023-09-07T06:23:35;13.27;;;7.55;;
59189;SDS011;50749;51.636;4.948;2023-09-07T06:26:01;12.20;;;7.80;;
59189;SDS011;50749;51.636;4.948;2023-09-07T06:28:27;12.43;;;7.70;;
59189;SDS011;50749;51.636;4.948;2023-09-07T06:30:53;10.60;;;7.82;;
59189;SDS011;50749;51.636;4.948;2023-09-07T06:33:18;10.25;;;7.25;;
59189;SDS011;50749;51.636;4.948;2023-09-07T06:35:44;11.60;;;7.30;;
59189;SDS011;50749;51.636;4.948;2023-09-07T06:38:10;10.00;;;7.18;;
59189;SDS011;50749;51.636;4.948;2023-09-07T06:40:36;10.32;;;7.10;;
59189;SDS011;50749;51.636;4.948;2023-09-07T06:43:02;10.93;;;7.70;;
59189;SDS011;50749;51.636;4.948;2023-09-07T06:45:36;9.60;;;7.68;;
59189;SDS011;50749;51.636;4.948;2023-09-07T06:48:03;10.55;;;7.50;;
59189;SDS011;50749;51.636;4.948;2023-09-07T06:50:29;11.20;;;6.95;;
59189;SDS011;50749;51.636;4.948;2023-09-07T06:52:55;13.02;;;7.13;;
59189;SDS011;50749;51.636;4.948;2023-09-07T06:55:21;14.30;;;7.78;;
59189;SDS011;50749;51.636;4.948;2023-09-07T06:57:47;12.73;;;7.60;;
59189;SDS011;50749;51.636;4.948;2023-09-07T07:00:13;10.85;;;6.85;;
59189;SDS011;50749;51.636;4.948;2023-09-07T07:02:39;10.82;;;7.05;;
59189;SDS011;50749;51.636;4.948;2023-09-07T07:05:05;9.93;;;7.35;;
59189;SDS011;50749;51.636;4.948;2023-09-07T07:07:31;10.02;;;6.53;;
59189;SDS011;50749;51.636;4.948;2023-09-07T07:09:57;9.63;;;7.45;;
59189;SDS011;50749;51.636;4.948;2023-09-07T07:12:23;11.93;;;7.20;;
59189;SDS011;50749;51.636;4.948;2023-09-07T07:14:49;12.15;;;7.05;;
59189;SDS011;50749;51.636;4.948;2023-09-07T07:17:14;9.73;;;7.40;;
59189;SDS011;50749;51.636;4.948;2023-09-07T07:19:40;14.13;;;7.20;;
59189;SDS011;50749;51.636;4.948;2023-09-07T07:22:08;13.05;;;7.22;;
59189;SDS011;50749;51.636;4.948;2023-09-07T07:24:34;8.40;;;6.90;;
59189;SDS011;50749;51.636;4.948;2023-09-07T07:27:00;11.25;;;6.90;;
59189;SDS011;50749;51.636;4.948;2023-09-07T07:29:26;12.48;;;6.03;;
59189;SDS011;50749;51.636;4.948;2023-09-07T07:31:52;9.55;;;6.20;;
59189;SDS011;50749;51.636;4.948;2023-09-07T07:34:18;9.88;;;6.68;;
59189;SDS011;50749;51.636;4.948;2023-09-07T07:36:43;12.13;;;6.22;;
59189;SDS011;50749;51.636;4.948;2023-09-07T07:39:09;11.85;;;6.72;;
59189;SDS011;50749;51.636;4.948;2023-09-07T07:41:35;8.30;;;6.00;;
59189;SDS011;50749;51.636;4.948;2023-09-07T07:44:01;9.10;;;6.18;;
59189;SDS011;50749;51.636;4.948;2023-09-07T07:46:28;8.82;;;6.38;;
59189;SDS011;50749;51.636;4.948;2023-09-07T07:48:54;8.73;;;6.53;;
59189;SDS011;50749;51.636;4.948;2023-09-07T07:51:19;8.05;;;6.30;;
59189;SDS011;50749;51.636;4.948;2023-09-07T07:53:45;8.95;;;6.03;;
59189;SDS011;50749;51.636;4.948;2023-09-07T07:56:15;11.68;;;6.10;;
59189;SDS011;50749;51.636;4.948;2023-09-07T07:58:41;10.48;;;6.53;;
59189;SDS011;50749;51.636;4.948;2023-09-07T08:01:17;9.25;;;6.07;;
59189;SDS011;50749;51.636;4.948;2023-09-07T08:03:44;13.65;;;5.57;;
59189;SDS011;50749;51.636;4.948;2023-09-07T08:06:10;10.20;;;5.43;;
59189;SDS011;50749;51.636;4.948;2023-09-07T08:08:37;10.70;;;5.90;;
59189;SDS011;50749;51.636;4.948;2023-09-07T08:11:04;8.15;;;5.63;;
59189;SDS011;50749;51.636;4.948;2023-09-07T08:13:32;8.57;;;6.00;;
59189;SDS011;50749;51.636;4.948;2023-09-07T08:16:02;7.82;;;5.47;;
59189;SDS011;50749;51.636;4.948;2023-09-07T08:18:29;7.50;;;5.53;;
59189;SDS011;50749;51.636;4.948;2023-09-07T08:20:58;19.30;;;7.25;;
59189;SDS011;50749;51.636;4.948;2023-09-07T08:23:24;8.75;;;5.43;;
59189;SDS011;50749;51.636;4.948;2023-09-07T08:25:53;8.40;;;5.28;;
59189;SDS011;50749;51.636;4.948;2023-09-07T08:28:20;7.68;;;5.05;;
59189;SDS011;50749;51.636;4.948;2023-09-07T08:30:50;8.75;;;4.90;;
59189;SDS011;50749;51.636;4.948;2023-09-07T08:33:21;9.27;;;4.82;;
59189;SDS011;50749;51.636;4.948;2023-09-07T08:35:54;7.07;;;5.38;;
59189;SDS011;50749;51.636;4.948;2023-09-07T08:38:21;10.38;;;5.15;;
59189;SDS011;50749;51.636;4.948;2023-09-07T08:40:54;7.30;;;5.18;;
59189;SDS011;50749;51.636;4.948;2023-09-07T08:43:23;6.97;;;5.10;;
59189;SDS011;50749;51.636;4.948;2023-09-07T08:45:51;6.28;;;4.82;;
59189;SDS011;50749;51.636;4.948;2023-09-07T08:48:25;8.18;;;4.88;;
59189;SDS011;50749;51.636;4.948;2023-09-07T08:50:53;12.48;;;4.88;;
59189;SDS011;50749;51.636;4.948;2023-09-07T08:53:20;8.82;;;4.75;;
59189;SDS011;50749;51.636;4.948;2023-09-07T08:55:46;8.80;;;4.43;;
59189;SDS011;50749;51.636;4.948;2023-09-07T08:58:14;6.90;;;4.20;;
59189;SDS011;50749;51.636;4.948;2023-09-07T09:00:40;5.78;;;4.55;;
59189;SDS011;50749;51.636;4.948;2023-09-07T09:03:09;6.90;;;4.25;;
59189;SDS011;50749;51.636;4.948;2023-09-07T09:05:36;5.63;;;3.80;;
59189;SDS011;50749;51.636;4.948;2023-09-07T09:08:05;5.57;;;3.45;;
59189;SDS011;50749;51.636;4.948;2023-09-07T09:10:31;7.45;;;3.50;;
59189;SDS011;50749;51.636;4.948;2023-09-07T09:12:57;6.18;;;3.28;;
59189;SDS011;50749;51.636;4.948;2023-09-07T09:15:25;4.88;;;3.25;;
59189;SDS011;50749;51.636;4.948;2023-09-07T09:17:53;9.10;;;3.05;;
59189;SDS011;50749;51.636;4.948;2023-09-07T09:20:23;7.55;;;3.03;;
59189;SDS011;50749;51.636;4.948;2023-09-07T09:22:50;7.25;;;3.60;;
59189;SDS011;50749;51.636;4.948;2023-09-07T09:25:21;5.47;;;3.40;;
59189;SDS011;50749;51.636;4.948;2023-09-07T09:27:47;5.43;;;3.58;;
59189;SDS011;50749;51.636;4.948;2023-09-07T09:30:13;6.60;;;3.08;;
59189;SDS011;50749;51.636;4.948;2023-09-07T09:32:42;4.28;;;2.90;;
59189;SDS011;50749;51.636;4.948;2023-09-07T09:35:08;6.30;;;3.08;;
59189;SDS011;50749;51.636;4.948;2023-09-07T09:37:45;5.35;;;2.97;;
59189;SDS011;50749;51.636;4.948;2023-09-07T09:40:12;7.43;;;3.10;;
59189;SDS011;50749;51.636;4.948;2023-09-07T09:42:41;5.13;;;3.08;;
59189;SDS011;50749;51.636;4.948;2023-09-07T09:45:09;8.70;;;3.15;;
59189;SDS011;50749;51.636;4.948;2023-09-07T09:47:42;4.95;;;2.90;;
59189;SDS011;50749;51.636;4.948;2023-09-07T09:50:09;4.65;;;3.08;;
59189;SDS011;50749;51.636;4.948;2023-09-07T09:52:36;4.55;;;3.03;;
59189;SDS011;50749;51.636;4.948;2023-09-07T09:55:03;6.47;;;2.83;;
59189;SDS011;50749;51.636;4.948;2023-09-07T09:57:32;4.47;;;2.67;;
59189;SDS011;50749;51.636;4.948;2023-09-07T09:59:58;4.53;;;3.10;;
59189;SDS011;50749;51.636;4.948;2023-09-07T10:02:25;10.35;;;3.35;;
59189;SDS011;50749;51.636;4.948;2023-09-07T10:04:51;4.35;;;2.83;;
59189;SDS011;50749;51.636;4.948;2023-09-07T10:07:18;4.65;;;2.58;;
59189;SDS011;50749;51.636;4.948;2023-09-07T10:09:44;5.82;;;2.67;;
59189;SDS011;50749;51.636;4.948;2023-09-07T10:12:13;9.80;;;2.90;;
59189;SDS011;50749;51.636;4.948;2023-09-07T10:14:41;4.13;;;2.53;;
59189;SDS011;50749;51.636;4.948;2023-09-07T10:17:08;4.15;;;2.80;;
59189;SDS011;50749;51.636;4.948;2023-09-07T10:19:35;7.40;;;2.58;;
59189;SDS011;50749;51.636;4.948;2023-09-07T10:22:03;4.90;;;2.70;;
59189;SDS011;50749;51.636;4.948;2023-09-07T10:24:29;4.60;;;2.63;;
59189;SDS011;50749;51.636;4.948;2023-09-07T10:27:07;4.07;;;2.67;;
59189;SDS011;50749;51.636;4.948;2023-09-07T10:32:08;3.92;;;2.53;;
59189;SDS011;50749;51.636;4.948;2023-09-07T10:34:36;4.75;;;2.90;;
59189;SDS011;50749;51.636;4.948;2023-09-07T10:37:05;6.07;;;3.08;;
59189;SDS011;50749;51.636;4.948;2023-09-07T10:39:35;5.03;;;2.55;;
59189;SDS011;50749;51.636;4.948;2023-09-07T10:42:02;19.50;;;4.38;;
59189;SDS011;50749;51.636;4.948;2023-09-07T10:44:28;4.72;;;2.65;;
59189;SDS011;50749;51.636;4.948;2023-09-07T10:46:56;5.25;;;2.75;;
59189;SDS011;50749;51.636;4.948;2023-09-07T10:49:23;4.20;;;2.80;;
59189;SDS011;50749;51.636;4.948;2023-09-07T10:51:49;5.30;;;2.60;;
59189;SDS011;50749;51.636;4.948;2023-09-07T10:54:21;3.28;;;2.38;;
59189;SDS011;50749;51.636;4.948;2023-09-07T10:56:49;3.20;;;2.47;;
59189;SDS011;50749;51.636;4.948;2023-09-07T10:59:16;4.80;;;2.47;;
59189;SDS011;50749;51.636;4.948;2023-09-07T11:01:43;10.75;;;2.60;;
59189;SDS011;50749;51.636;4.948;2023-09-07T11:04:09;3.72;;;2.83;;
59189;SDS011;50749;51.636;4.948;2023-09-07T11:06:37;4.18;;;2.97;;
59189;SDS011;50749;51.636;4.948;2023-09-07T11:09:04;5.57;;;3.20;;
59189;SDS011;50749;51.636;4.948;2023-09-07T11:11:34;7.05;;;3.08;;
59189;SDS011;50749;51.636;4.948;2023-09-07T11:14:01;7.70;;;2.70;;
59189;SDS011;50749;51.636;4.948;2023-09-07T11:16:32;4.15;;;2.60;;
59189;SDS011;50749;51.636;4.948;2023-09-07T11:19:03;5.20;;;3.00;;
59189;SDS011;50749;51.636;4.948;2023-09-07T11:21:31;6.72;;;2.70;;
59189;SDS011;50749;51.636;4.948;2023-09-07T11:24:01;6.40;;;2.63;;
59189;SDS011;50749;51.636;4.948;2023-09-07T11:26:40;6.97;;;2.80;;
59189;SDS011;50749;51.636;4.948;2023-09-07T11:29:08;5.93;;;3.13;;
59189;SDS011;50749;51.636;4.948;2023-09-07T11:31:35;4.38;;;2.80;;
59189;SDS011;50749;51.636;4.948;2023-09-07T11:34:01;4.85;;;2.75;;
59189;SDS011;50749;51.636;4.948;2023-09-07T11:36:26;3.28;;;2.55;;
59189;SDS011;50749;51.636;4.948;2023-09-07T11:38:53;3.47;;;2.70;;
59189;SDS011;50749;51.636;4.948;2023-09-07T11:41:19;3.75;;;2.70;;
59189;SDS011;50749;51.636;4.948;2023-09-07T11:43:44;4.35;;;2.78;;
59189;SDS011;50749;51.636;4.948;2023-09-07T11:46:11;5.75;;;2.67;;
59189;SDS011;50749;51.636;4.948;2023-09-07T11:48:36;3.90;;;3.35;;
59189;SDS011;50749;51.636;4.948;2023-09-07T11:51:02;5.65;;;3.05;;
59189;SDS011;50749;51.636;4.948;2023-09-07T11:53:28;3.60;;;2.28;;
59189;SDS011;50749;51.636;4.948;2023-09-07T11:55:55;5.38;;;3.05;;
59189;SDS011;50749;51.636;4.948;2023-09-07T11:58:23;6.90;;;4.35;;
59189;SDS011;50749;51.636;4.948;2023-09-07T12:00:50;7.25;;;2.80;;
59189;SDS011;50749;51.636;4.948;2023-09-07T12:03:16;3.45;;;2.60;;
59189;SDS011;50749;51.636;4.948;2023-09-07T12:05:43;6.38;;;3.10;;
59189;SDS011;50749;51.636;4.948;2023-09-07T12:08:09;4.85;;;2.70;;
59189;SDS011;50749;51.636;4.948;2023-09-07T12:10:35;3.00;;;2.40;;
59189;SDS011;50749;51.636;4.948;2023-09-07T12:13:01;6.55;;;2.55;;
59189;SDS011;50749;51.636;4.948;2023-09-07T12:15:27;4.15;;;2.83;;
59189;SDS011;50749;51.636;4.948;2023-09-07T12:17:52;3.95;;;3.00;;
59189;SDS011;50749;51.636;4.948;2023-09-07T12:20:20;3.72;;;2.50;;
59189;SDS011;50749;51.636;4.948;2023-09-07T12:22:46;5.43;;;2.88;;
59189;SDS011;50749;51.636;4.948;2023-09-07T12:25:12;4.07;;;2.90;;
59189;SDS011;50749;51.636;4.948;2023-09-07T12:27:38;3.65;;;2.65;;
59189;SDS011;50749;51.636;4.948;2023-09-07T12:30:04;7.80;;;2.80;;
59189;SDS011;50749;51.636;4.948;2023-09-07T12:32:32;3.42;;;2.80;;
59189;SDS011;50749;51.636;4.948;2023-09-07T12:34:58;6.25;;;3.25;;
59189;SDS011;50749;51.636;4.948;2023-09-07T12:37:24;3.75;;;2.47;;
59189;SDS011;50749;51.636;4.948;2023-09-07T12:39:51;3.90;;;3.00;;
59189;SDS011;50749;51.636;4.948;2023-09-07T12:42:17;4.32;;;2.58;;
59189;SDS011;50749;51.636;4.948;2023-09-07T12:44:44;4.85;;;2.90;;
59189;SDS011;50749;51.636;4.948;2023-09-07T12:47:09;4.43;;;2.65;;
59189;SDS011;50749;51.636;4.948;2023-09-07T12:49:35;4.47;;;2.72;;
59189;SDS011;50749;51.636;4.948;2023-09-07T12:52:01;3.70;;;2.60;;
59189;SDS011;50749;51.636;4.948;2023-09-07T12:54:37;5.40;;;2.70;;
59189;SDS011;50749;51.636;4.948;2023-09-07T12:57:03;3.83;;;2.63;;
59189;SDS011;50749;51.636;4.948;2023-09-07T12:59:29;5.93;;;2.78;;
59189;SDS011;50749;51.636;4.948;2023-09-07T13:01:55;3.45;;;2.47;;
59189;SDS011;50749;51.636;4.948;2023-09-07T13:04:24;5.28;;;2.80;;
59189;SDS011;50749;51.636;4.948;2023-09-07T13:06:49;6.57;;;3.20;;
59189;SDS011;50749;51.636;4.948;2023-09-07T13:09:15;5.07;;;2.72;;
59189;SDS011;50749;51.636;4.948;2023-09-07T13:11:41;3.63;;;2.72;;
59189;SDS011;50749;51.636;4.948;2023-09-07T13:14:07;4.05;;;2.63;;
59189;SDS011;50749;51.636;4.948;2023-09-07T13:16:35;4.72;;;2.80;;
59189;SDS011;50749;51.636;4.948;2023-09-07T13:19:02;3.72;;;2.90;;
59189;SDS011;50749;51.636;4.948;2023-09-07T13:21:28;5.00;;;2.75;;
59189;SDS011;50749;51.636;4.948;2023-09-07T13:23:54;4.80;;;2.70;;
59189;SDS011;50749;51.636;4.948;2023-09-07T13:26:19;3.72;;;2.60;;
59189;SDS011;50749;51.636;4.948;2023-09-07T13:28:45;3.55;;;2.60;;
59189;SDS011;50749;51.636;4.948;2023-09-07T13:31:11;3.75;;;2.80;;
59189;SDS011;50749;51.636;4.948;2023-09-07T13:33:37;4.25;;;2.65;;
59189;SDS011;50749;51.636;4.948;2023-09-07T13:36:03;3.13;;;2.58;;
59189;SDS011;50749;51.636;4.948;2023-09-07T13:38:29;4.57;;;2.70;;
59189;SDS011;50749;51.636;4.948;2023-09-07T13:40:55;5.60;;;2.75;;
59189;SDS011;50749;51.636;4.948;2023-09-07T13:43:21;4.03;;;2.72;;
59189;SDS011;50749;51.636;4.948;2023-09-07T13:45:46;4.53;;;2.58;;
59189;SDS011;50749;51.636;4.948;2023-09-07T13:48:13;9.75;;;2.80;;
59189;SDS011;50749;51.636;4.948;2023-09-07T13:50:39;3.90;;;2.63;;
59189;SDS011;50749;51.636;4.948;2023-09-07T13:53:05;4.07;;;2.40;;
59189;SDS011;50749;51.636;4.948;2023-09-07T13:55:30;7.00;;;3.17;;
59189;SDS011;50749;51.636;4.948;2023-09-07T13:57:56;5.20;;;2.80;;
59189;SDS011;50749;51.636;4.948;2023-09-07T14:00:22;4.53;;;2.85;;
59189;SDS011;50749;51.636;4.948;2023-09-07T14:02:49;4.63;;;3.03;;
59189;SDS011;50749;51.636;4.948;2023-09-07T14:05:14;4.30;;;2.80;;
59189;SDS011;50749;51.636;4.948;2023-09-07T14:07:40;4.93;;;2.60;;
59189;SDS011;50749;51.636;4.948;2023-09-07T14:10:06;5.25;;;2.90;;
59189;SDS011;50749;51.636;4.948;2023-09-07T14:12:32;3.53;;;2.72;;
59189;SDS011;50749;51.636;4.948;2023-09-07T14:14:58;3.83;;;2.78;;
59189;SDS011;50749;51.636;4.948;2023-09-07T14:17:24;3.45;;;2.63;;
59189;SDS011;50749;51.636;4.948;2023-09-07T14:19:50;5.85;;;2.72;;
59189;SDS011;50749;51.636;4.948;2023-09-07T14:22:16;3.80;;;2.80;;
59189;SDS011;50749;51.636;4.948;2023-09-07T14:24:41;6.03;;;3.08;;
59189;SDS011;50749;51.636;4.948;2023-09-07T14:27:07;3.60;;;2.70;;
59189;SDS011;50749;51.636;4.948;2023-09-07T14:29:34;4.75;;;3.00;;
59189;SDS011;50749;51.636;4.948;2023-09-07T14:32:03;3.15;;;2.50;;
59189;SDS011;50749;51.636;4.948;2023-09-07T14:34:29;4.28;;;2.88;;
59189;SDS011;50749;51.636;4.948;2023-09-07T14:36:55;5.03;;;2.85;;
59189;SDS011;50749;51.636;4.948;2023-09-07T14:39:21;3.50;;;2.63;;
59189;SDS011;50749;51.636;4.948;2023-09-07T14:41:50;8.75;;;3.13;;
59189;SDS011;50749;51.636;4.948;2023-09-07T14:44:18;3.55;;;2.90;;
59189;SDS011;50749;51.636;4.948;2023-09-07T14:46:44;3.63;;;2.85;;